createdAt,value
2023-05-07T00:02:01.852Z,74.50
2023-05-07T00:04:29.563Z,74.80
2023-05-07T00:06:56.778Z,74.61
2023-05-07T00:09:23.500Z,75.29
2023-05-07T00:11:50.204Z,75.17
2023-05-07T00:14:16.906Z,75.28
2023-05-07T00:16:43.633Z,75.40
2023-05-07T00:19:10.279Z,74.94
2023-05-07T00:21:37.025Z,75.27
2023-05-07T00:24:04.489Z,75.06
2023-05-07T00:26:31.145Z,75.36
2023-05-07T00:28:57.828Z,75.08
2023-05-07T00:31:24.527Z,75.29
2023-05-07T00:33:51.220Z,75.49
2023-05-07T00:36:17.907Z,75.51
2023-05-07T00:38:44.568Z,75.93
2023-05-07T00:41:11.297Z,75.51
2023-05-07T00:43:37.996Z,76.08
2023-05-07T00:46:04.851Z,76.24
2023-05-07T00:48:31.733Z,76.39
2023-05-07T00:50:58.398Z,76.45
2023-05-07T00:53:25.075Z,76.75
2023-05-07T00:55:51.717Z,76.69
2023-05-07T00:58:18.385Z,77.06
2023-05-07T01:00:45.392Z,76.85
2023-05-07T01:03:12.043Z,77.56
2023-05-07T01:05:39.218Z,77.18
2023-05-07T01:08:06.483Z,77.46
2023-05-07T01:10:33.326Z,77.96
2023-05-07T01:13:00.228Z,77.58
2023-05-07T01:15:26.994Z,77.68
2023-05-07T01:17:53.655Z,77.24
2023-05-07T01:20:20.677Z,76.95
2023-05-07T01:22:47.415Z,77.09
2023-05-07T01:25:14.736Z,76.71
2023-05-07T01:27:41.347Z,76.77
2023-05-07T01:30:08.781Z,76.93
2023-05-07T01:32:49.533Z,76.75
2023-05-07T01:35:21.717Z,77.05
2023-05-07T01:37:48.681Z,76.77
2023-05-07T01:40:15.373Z,76.98
2023-05-07T01:42:43.095Z,77.18
2023-05-07T01:45:10.473Z,77.25
2023-05-07T01:47:40.226Z,77.05
2023-05-07T01:50:09.548Z,77.45
2023-05-07T01:52:38.687Z,77.09
2023-05-07T01:55:06.639Z,77.37
2023-05-07T01:57:33.374Z,77.10
2023-05-07T02:00:00.047Z,77.28
2023-05-07T02:02:26.815Z,76.96
2023-05-07T02:04:53.597Z,77.36
2023-05-07T02:07:20.774Z,77.15
2023-05-07T02:09:47.476Z,77.20
2023-05-07T02:12:14.220Z,78.15
2023-05-07T02:14:40.965Z,78.06
2023-05-07T02:17:07.653Z,78.14
2023-05-07T02:19:34.359Z,77.79
2023-05-07T02:22:01.012Z,77.71
2023-05-07T02:24:27.691Z,77.80
2023-05-07T02:26:54.366Z,77.61
2023-05-07T02:29:21.083Z,77.03
2023-05-07T02:31:52.047Z,77.26
2023-05-07T02:34:18.830Z,76.98
2023-05-07T02:36:45.622Z,77.50
2023-05-07T02:39:12.985Z,77.23
2023-05-07T02:41:39.697Z,77.27
2023-05-07T02:44:06.354Z,76.75
2023-05-07T02:46:33.007Z,76.03
2023-05-07T02:48:59.663Z,76.43
2023-05-07T02:51:27.077Z,76.91
2023-05-07T02:53:53.724Z,76.22
2023-05-07T02:56:20.831Z,76.88
2023-05-07T02:58:47.481Z,76.73
2023-05-07T03:01:15.102Z,77.54
2023-05-07T03:03:41.917Z,77.49
2023-05-07T03:06:08.735Z,77.69
2023-05-07T03:08:35.591Z,77.29
2023-05-07T03:11:02.401Z,77.32
2023-05-07T03:13:29.062Z,77.70
2023-05-07T03:15:56.115Z,77.91
2023-05-07T03:18:23.016Z,78.44
2023-05-07T03:20:49.822Z,78.63
2023-05-07T03:23:16.547Z,77.91
2023-05-07T03:25:43.198Z,78.27
2023-05-07T03:28:09.833Z,78.41
2023-05-07T03:30:36.457Z,78.89
2023-05-07T03:33:03.192Z,78.85
2023-05-07T03:35:29.938Z,77.94
2023-05-07T03:37:56.626Z,77.95
2023-05-07T03:40:23.293Z,78.96
2023-05-07T03:42:49.975Z,78.19
2023-05-07T03:45:16.745Z,77.72
2023-05-07T03:47:43.552Z,78.29
2023-05-07T03:50:11.916Z,77.81
2023-05-07T03:52:38.831Z,77.04
2023-05-07T03:55:07.365Z,77.02
2023-05-07T03:57:34.234Z,77.26
2023-05-07T04:00:00.890Z,77.09
2023-05-07T04:02:27.715Z,77.38
2023-05-07T04:04:55.140Z,77.18
2023-05-07T04:07:21.780Z,76.97
2023-05-07T04:09:48.414Z,76.76
2023-05-07T04:12:16.138Z,77.10
2023-05-07T04:14:42.816Z,77.63
2023-05-07T04:17:10.860Z,76.96
2023-05-07T04:19:37.524Z,76.08
2023-05-07T04:22:04.433Z,75.52
2023-05-07T04:24:34.323Z,75.74
2023-05-07T04:27:01.018Z,74.42
2023-05-07T04:29:28.219Z,75.23
2023-05-07T04:31:56.920Z,74.70
2023-05-07T04:34:23.953Z,74.94
2023-05-07T04:36:50.697Z,75.43
2023-05-07T04:39:17.451Z,74.86
2023-05-07T04:41:44.107Z,74.99
2023-05-07T04:44:10.779Z,73.93
2023-05-07T04:46:38.610Z,73.76
2023-05-07T04:49:05.368Z,73.35
2023-05-07T04:51:33.890Z,73.44
2023-05-07T04:54:00.535Z,73.24
2023-05-07T04:56:29.938Z,72.80
2023-05-07T04:58:57.014Z,72.60
2023-05-07T05:01:23.723Z,72.73
2023-05-07T05:03:50.477Z,72.72
2023-05-07T05:06:17.161Z,72.44
2023-05-07T05:08:43.917Z,72.93
2023-05-07T05:11:11.005Z,72.45
2023-05-07T05:13:37.750Z,72.40
2023-05-07T05:16:04.635Z,72.20
2023-05-07T05:18:31.361Z,71.60
2023-05-07T05:20:58.005Z,71.23
2023-05-07T05:23:24.646Z,71.12
2023-05-07T05:25:51.310Z,69.81
2023-05-07T05:28:17.951Z,67.88
2023-05-07T05:34:31.943Z,63.44
2023-05-07T05:36:58.607Z,62.37
2023-05-07T05:39:25.234Z,59.38
2023-05-07T05:41:51.836Z,58.94
2023-05-07T05:44:18.519Z,56.70
2023-05-07T05:46:45.668Z,56.50
2023-05-07T05:49:12.304Z,56.40
2023-05-07T05:51:39.023Z,56.63
2023-05-07T05:54:18.845Z,57.63
2023-05-07T05:56:45.637Z,58.68
2023-05-07T05:59:12.546Z,60.05
2023-05-07T06:01:39.697Z,60.68
2023-05-07T06:04:06.394Z,61.49
2023-05-07T06:06:33.324Z,62.41
2023-05-07T06:08:59.924Z,63.89
2023-05-07T06:11:27.524Z,65.20
2023-05-07T06:13:54.140Z,65.54
2023-05-07T06:16:20.929Z,66.26
2023-05-07T06:18:47.868Z,66.46
2023-05-07T06:21:14.821Z,66.82
2023-05-07T06:23:41.939Z,65.67
2023-05-07T06:26:08.774Z,65.95
2023-05-07T06:28:38.125Z,67.42
2023-05-07T06:31:18.060Z,67.85
2023-05-07T06:33:45.552Z,68.73
2023-05-07T06:36:12.185Z,68.79
2023-05-07T06:38:38.831Z,68.78
2023-05-07T06:41:07.078Z,68.63
2023-05-07T06:43:34.202Z,69.00
2023-05-07T06:46:00.890Z,68.93
2023-05-07T06:48:27.504Z,69.95
2023-05-07T06:50:56.187Z,69.53
2023-05-07T06:53:22.852Z,68.27
2023-05-07T06:55:49.606Z,68.09
2023-05-07T06:58:16.478Z,67.83
2023-05-07T07:00:43.104Z,66.28
2023-05-07T07:03:09.792Z,65.91
2023-05-07T07:05:36.527Z,66.14
2023-05-07T07:08:03.139Z,65.28
2023-05-07T07:10:29.727Z,65.91
2023-05-07T07:12:56.405Z,66.85
2023-05-07T07:15:23.099Z,67.44
2023-05-07T07:17:50.050Z,67.92
2023-05-07T07:20:17.417Z,68.31
2023-05-07T07:22:44.269Z,68.10
2023-05-07T07:25:12.042Z,65.82
2023-05-07T07:27:38.927Z,65.99
2023-05-07T07:30:06.348Z,66.30
2023-05-07T07:32:34.475Z,65.96
2023-05-07T07:35:01.331Z,65.84
2023-05-07T07:37:28.120Z,64.81
2023-05-07T07:39:54.801Z,64.62
2023-05-07T07:42:21.420Z,65.49
2023-05-07T07:44:48.020Z,65.78
2023-05-07T07:47:14.622Z,65.76
2023-05-07T07:49:41.292Z,66.28
2023-05-07T07:52:07.940Z,66.19
2023-05-07T07:54:34.583Z,66.56
2023-05-07T07:57:02.532Z,66.90
2023-05-07T07:59:29.189Z,67.00
2023-05-07T08:01:57.893Z,67.66
2023-05-07T08:04:24.693Z,67.53
2023-05-07T08:06:51.457Z,67.64
2023-05-07T08:09:18.096Z,67.82
2023-05-07T08:11:44.703Z,67.10
2023-05-07T08:14:11.361Z,68.10
2023-05-07T08:16:37.988Z,69.19
2023-05-07T08:19:04.690Z,69.89
2023-05-07T08:21:33.768Z,70.24
2023-05-07T08:24:01.118Z,70.50
2023-05-07T08:26:27.751Z,70.74
2023-05-07T08:28:54.417Z,71.45
2023-05-07T08:31:21.254Z,72.26
2023-05-07T08:33:47.991Z,73.25
2023-05-07T08:36:14.656Z,72.94
2023-05-07T08:38:43.802Z,73.47
2023-05-07T08:41:12.017Z,74.02
2023-05-07T08:43:39.103Z,74.20
2023-05-07T08:46:07.488Z,75.04
2023-05-07T08:48:36.136Z,75.90
2023-05-07T08:51:02.930Z,76.02
2023-05-07T08:53:29.849Z,75.62
2023-05-07T08:55:56.460Z,74.14
2023-05-07T08:58:23.108Z,74.60
2023-05-07T09:00:49.714Z,74.91
2023-05-07T09:03:17.141Z,73.60
2023-05-07T09:05:45.186Z,72.28
2023-05-07T09:08:15.950Z,73.51
2023-05-07T09:10:42.611Z,73.56
2023-05-07T09:13:10.163Z,73.77
2023-05-07T09:15:36.956Z,74.66
2023-05-07T09:18:03.660Z,74.63
2023-05-07T09:20:33.487Z,75.82
2023-05-07T09:23:00.234Z,75.75
2023-05-07T09:25:30.899Z,75.86
2023-05-07T09:27:57.541Z,76.93
2023-05-07T09:30:24.320Z,76.97
2023-05-07T09:32:52.036Z,77.57
2023-05-07T09:35:19.062Z,78.31
2023-05-07T09:37:45.839Z,77.54
2023-05-07T09:40:32.862Z,78.37
2023-05-07T09:43:10.660Z,79.38
2023-05-07T09:45:37.398Z,79.01
2023-05-07T09:48:04.308Z,79.88
2023-05-07T09:50:33.744Z,79.47
2023-05-07T09:53:00.354Z,78.52
2023-05-07T09:55:26.943Z,78.74
2023-05-07T09:57:54.118Z,79.29
2023-05-07T10:00:22.285Z,79.73
2023-05-07T10:02:53.460Z,79.52
2023-05-07T10:05:23.110Z,79.87
2023-05-07T10:07:50.346Z,80.08
2023-05-07T10:10:17.177Z,79.48
2023-05-07T10:12:44.015Z,80.01
2023-05-07T10:15:11.720Z,80.26
2023-05-07T10:17:39.320Z,81.00
2023-05-07T10:20:08.450Z,80.37
2023-05-07T10:22:46.438Z,81.20
2023-05-07T10:25:19.648Z,81.35
2023-05-07T10:27:47.103Z,81.31
2023-05-07T10:30:38.422Z,81.24
2023-05-07T10:33:09.019Z,81.64
2023-05-07T10:35:43.241Z,81.53
2023-05-07T10:38:10.052Z,81.64
2023-05-07T10:40:36.925Z,81.40
2023-05-07T10:43:10.288Z,80.07
2023-05-07T10:45:37.646Z,78.58
2023-05-07T10:48:27.993Z,78.58
2023-05-07T10:51:22.542Z,78.66
2023-05-07T10:53:49.347Z,79.24
2023-05-07T10:56:19.007Z,78.97
2023-05-07T10:58:45.764Z,79.15
2023-05-07T11:01:14.296Z,79.21
2023-05-07T11:04:15.935Z,78.75
2023-05-07T11:06:42.663Z,78.56
2023-05-07T11:09:09.268Z,77.63
2023-05-07T11:11:47.902Z,77.34
2023-05-07T11:14:15.832Z,77.61
2023-05-07T11:16:43.095Z,78.51
2023-05-07T11:19:09.851Z,77.93
2023-05-07T11:21:36.930Z,77.86
2023-05-07T11:24:04.345Z,77.74
2023-05-07T11:26:32.534Z,77.91
2023-05-07T11:29:01.390Z,77.81
2023-05-07T11:31:29.695Z,77.53
2023-05-07T11:33:56.596Z,77.37
2023-05-07T11:36:23.901Z,77.25
2023-05-07T11:38:50.526Z,75.90
2023-05-07T11:41:17.457Z,76.03
2023-05-07T11:43:57.680Z,75.85
2023-05-07T11:46:24.650Z,76.29
2023-05-07T11:48:51.569Z,75.41
2023-05-07T11:51:25.392Z,75.94
2023-05-07T11:53:52.126Z,75.58
2023-05-07T11:56:19.274Z,75.56
2023-05-07T11:58:46.734Z,74.02
2023-05-07T12:01:14.046Z,73.48
2023-05-07T12:03:46.812Z,73.83
2023-05-07T12:06:15.167Z,73.18
2023-05-07T12:08:42.785Z,73.71
2023-05-07T12:11:12.441Z,73.39
2023-05-07T12:13:39.410Z,72.86
2023-05-07T12:16:06.945Z,73.79
2023-05-07T12:18:34.805Z,73.37
2023-05-07T12:21:01.510Z,73.16
2023-05-07T12:23:28.199Z,73.16
2023-05-07T12:25:54.885Z,73.49
2023-05-07T12:28:21.741Z,73.57
2023-05-07T12:30:49.165Z,74.08
2023-05-07T12:33:20.259Z,73.88
2023-05-07T12:35:46.975Z,73.48
2023-05-07T12:38:14.629Z,73.70
2023-05-07T12:40:51.766Z,72.33
2023-05-07T12:43:22.680Z,71.06
2023-05-07T12:45:50.249Z,70.68
2023-05-07T12:48:16.921Z,70.79
2023-05-07T12:50:44.106Z,71.54
2023-05-07T12:53:13.067Z,70.83
2023-05-07T12:55:47.013Z,71.86
2023-05-07T12:58:33.974Z,71.65
2023-05-07T13:01:01.898Z,72.11
2023-05-07T13:03:35.972Z,72.90
2023-05-07T13:06:16.167Z,72.22
2023-05-07T13:08:45.564Z,72.04
2023-05-07T13:11:12.567Z,72.15
2023-05-07T13:13:40.886Z,72.55
2023-05-07T13:16:09.526Z,73.03
2023-05-07T13:18:36.724Z,73.45
2023-05-07T13:21:03.678Z,71.73
2023-05-07T13:23:30.585Z,71.56
2023-05-07T13:25:57.714Z,72.04
2023-05-07T13:28:25.126Z,71.06
2023-05-07T13:30:52.933Z,71.98
2023-05-07T13:33:19.622Z,71.96
2023-05-07T13:35:46.325Z,70.41
2023-05-07T13:38:12.943Z,71.47
2023-05-07T13:40:39.564Z,71.09
2023-05-07T13:43:06.832Z,71.56
2023-05-07T13:45:33.662Z,72.08
2023-05-07T13:48:00.648Z,72.80
2023-05-07T13:50:31.052Z,71.63
2023-05-07T13:52:57.989Z,71.79
2023-05-07T13:55:25.023Z,71.58
2023-05-07T13:57:58.716Z,72.44
2023-05-07T14:00:26.249Z,71.35
2023-05-07T14:02:53.374Z,71.06
2023-05-07T14:05:20.579Z,70.99
2023-05-07T14:07:48.010Z,71.88
2023-05-07T14:10:14.924Z,71.97
2023-05-07T14:12:42.055Z,71.41
2023-05-07T14:15:09.200Z,71.50
2023-05-07T14:17:35.956Z,71.82
2023-05-07T14:20:02.657Z,72.10
2023-05-07T14:22:29.415Z,72.49
2023-05-07T14:25:06.307Z,72.68
2023-05-07T14:27:33.760Z,71.99
2023-05-07T14:30:00.390Z,72.41
2023-05-07T14:32:27.086Z,72.08
2023-05-07T14:34:53.978Z,72.35
2023-05-07T14:37:21.144Z,72.89
2023-05-07T14:39:49.742Z,73.22
2023-05-07T14:42:16.805Z,72.94
2023-05-07T14:44:43.492Z,73.57
2023-05-07T14:47:10.141Z,73.38
2023-05-07T14:49:37.048Z,73.29
2023-05-07T14:52:04.017Z,72.91
2023-05-07T14:54:30.951Z,73.00
2023-05-07T14:56:57.760Z,72.87
2023-05-07T14:59:26.124Z,73.31
2023-05-07T15:01:52.899Z,73.08
2023-05-07T15:04:19.885Z,73.28
2023-05-07T15:06:47.742Z,73.38
2023-05-07T15:09:14.685Z,74.04
2023-05-07T15:11:41.333Z,74.05
2023-05-07T15:14:08.036Z,74.53
2023-05-07T15:16:35.389Z,75.02
2023-05-07T15:19:02.209Z,74.94
2023-05-07T15:21:28.897Z,75.30
2023-05-07T15:23:55.537Z,75.16
2023-05-07T15:26:22.175Z,74.73
2023-05-07T15:28:48.828Z,75.12
2023-05-07T15:31:16.723Z,74.90
2023-05-07T15:33:43.495Z,74.97
2023-05-07T15:36:10.128Z,75.19
2023-05-07T15:38:36.795Z,75.66
2023-05-07T15:41:04.328Z,75.34
2023-05-07T15:43:30.942Z,75.47
2023-05-07T15:45:57.692Z,75.39
2023-05-07T15:48:24.365Z,75.27
2023-05-07T15:50:51.030Z,75.32
2023-05-07T15:53:17.642Z,75.50
2023-05-07T15:55:44.631Z,75.68
2023-05-07T15:58:11.310Z,75.81
2023-05-07T16:00:40.797Z,76.01
2023-05-07T16:03:08.532Z,74.96
2023-05-07T16:05:35.411Z,75.52
2023-05-07T16:08:02.264Z,75.36
2023-05-07T16:10:28.958Z,75.46
2023-05-07T16:12:55.848Z,75.79
2023-05-07T16:15:22.518Z,75.88
2023-05-07T16:17:51.935Z,76.51
2023-05-07T16:20:20.083Z,76.34
2023-05-07T16:22:46.955Z,76.82
2023-05-07T16:25:14.914Z,76.46
2023-05-07T16:27:41.760Z,76.20
2023-05-07T16:30:08.965Z,77.08
2023-05-07T16:32:36.367Z,77.11
2023-05-07T16:35:03.496Z,76.77
2023-05-07T16:37:30.270Z,77.10
2023-05-07T16:39:57.244Z,76.27
2023-05-07T16:42:23.893Z,77.07
2023-05-07T16:44:50.665Z,76.92
2023-05-07T16:47:17.821Z,76.68
2023-05-07T16:49:44.612Z,76.61
2023-05-07T16:52:11.320Z,76.20
2023-05-07T16:54:38.008Z,75.83
2023-05-07T16:57:04.593Z,75.83
2023-05-07T16:59:33.562Z,76.06
2023-05-07T17:02:00.521Z,75.08
2023-05-07T17:04:27.284Z,75.14
2023-05-07T17:06:53.936Z,75.04
2023-05-07T17:09:20.654Z,74.21
2023-05-07T17:11:47.275Z,74.97
2023-05-07T17:14:13.950Z,74.57
2023-05-07T17:16:40.851Z,75.14
2023-05-07T17:19:07.639Z,75.04
2023-05-07T17:21:34.320Z,74.86
2023-05-07T17:24:00.953Z,74.93
2023-05-07T17:26:28.010Z,74.37
2023-05-07T17:28:54.721Z,73.51
2023-05-07T17:31:21.647Z,74.11
2023-05-07T17:33:48.285Z,72.96
2023-05-07T17:36:15.307Z,72.63
2023-05-07T17:38:42.041Z,72.96
2023-05-07T17:41:08.650Z,73.68
2023-05-07T17:43:35.363Z,72.85
2023-05-07T17:46:03.282Z,73.33
2023-05-07T17:48:30.247Z,72.01
2023-05-07T17:51:04.110Z,71.91
2023-05-07T17:53:31.052Z,71.85
2023-05-07T17:55:57.667Z,71.12
2023-05-07T17:58:26.622Z,71.82
2023-05-07T18:00:56.316Z,71.37
2023-05-07T18:03:24.555Z,71.35
2023-05-07T18:05:51.396Z,71.43
2023-05-07T18:08:18.040Z,71.69
2023-05-07T18:10:44.681Z,71.28
2023-05-07T18:13:11.346Z,71.79
2023-05-07T18:15:38.038Z,71.00
2023-05-07T18:18:04.967Z,71.02
2023-05-07T18:20:31.853Z,71.26
2023-05-07T18:22:58.523Z,70.66
2023-05-07T18:25:25.196Z,70.20
2023-05-07T18:27:51.837Z,70.75
2023-05-07T18:30:18.517Z,69.90
2023-05-07T18:32:45.234Z,70.02
2023-05-07T18:35:12.007Z,70.46
2023-05-07T18:37:38.675Z,70.98
2023-05-07T18:40:06.260Z,71.43
2023-05-07T18:42:36.275Z,71.48
2023-05-07T18:45:04.224Z,71.05
2023-05-07T18:47:31.314Z,71.65
2023-05-07T18:49:58.210Z,71.40
2023-05-07T18:52:26.179Z,70.74
2023-05-07T18:54:52.787Z,70.39
2023-05-07T18:57:19.464Z,70.39
2023-05-07T18:59:46.077Z,70.67
2023-05-07T19:02:14.190Z,70.38
2023-05-07T19:04:41.031Z,70.43
2023-05-07T19:07:07.941Z,71.06
2023-05-07T19:09:34.660Z,71.03
2023-05-07T19:12:02.156Z,70.97
2023-05-07T19:14:28.938Z,71.25
2023-05-07T19:16:56.498Z,70.91
2023-05-07T19:19:23.285Z,71.00
2023-05-07T19:21:50.106Z,70.15
2023-05-07T19:24:16.777Z,70.19
2023-05-07T19:26:43.574Z,70.08
2023-05-07T19:29:17.400Z,70.43
2023-05-07T19:31:44.609Z,70.86
2023-05-07T19:34:13.256Z,70.37
2023-05-07T19:36:40.224Z,70.26
2023-05-07T19:39:07.383Z,70.39
2023-05-07T19:41:34.088Z,70.66
2023-05-07T19:44:00.890Z,70.92
2023-05-07T19:46:27.612Z,70.90
2023-05-07T19:48:54.435Z,70.81
2023-05-07T19:51:21.150Z,70.84
2023-05-07T19:53:47.991Z,70.80
2023-05-07T19:56:15.858Z,71.34
2023-05-07T19:58:42.505Z,71.27
2023-05-07T20:01:09.494Z,71.08
2023-05-07T20:03:36.428Z,70.50
2023-05-07T20:06:03.475Z,70.29
2023-05-07T20:08:30.389Z,70.22
2023-05-07T20:10:57.716Z,69.67
2023-05-07T20:13:24.484Z,70.26
2023-05-07T20:15:51.240Z,70.16
2023-05-07T20:18:17.881Z,70.60
2023-05-07T20:20:45.453Z,70.96
2023-05-07T20:23:12.186Z,71.47
2023-05-07T20:25:41.347Z,71.63
2023-05-07T20:28:08.125Z,71.52
2023-05-07T20:30:35.419Z,71.75
2023-05-07T20:33:04.052Z,71.91
2023-05-07T20:35:32.268Z,72.09
2023-05-07T20:37:59.009Z,71.69
2023-05-07T20:40:26.768Z,71.71
2023-05-07T20:42:53.420Z,72.39
2023-05-07T20:45:20.445Z,72.55
2023-05-07T20:47:47.425Z,73.16
2023-05-07T20:50:14.361Z,72.92
2023-05-07T20:52:41.797Z,73.06
2023-05-07T20:55:08.977Z,72.69
2023-05-07T20:57:51.096Z,72.95
2023-05-07T21:00:18.605Z,72.88
2023-05-07T21:02:45.400Z,73.04
2023-05-07T21:05:12.374Z,73.41
2023-05-07T21:07:39.086Z,73.16
2023-05-07T21:10:06.357Z,73.31
2023-05-07T21:12:33.139Z,72.87
2023-05-07T21:14:59.803Z,73.31
2023-05-07T21:17:29.015Z,73.05
2023-05-07T21:19:55.859Z,73.23
2023-05-07T21:22:22.660Z,72.96
2023-05-07T21:24:49.572Z,73.02
2023-05-07T21:27:16.296Z,72.25
2023-05-07T21:29:42.889Z,72.02
2023-05-07T21:32:09.481Z,71.81
2023-05-07T21:34:36.117Z,71.52
2023-05-07T21:37:03.045Z,71.98
2023-05-07T21:39:29.692Z,71.70
2023-05-07T21:41:56.996Z,72.12
2023-05-07T21:44:23.629Z,71.39
2023-05-07T21:46:50.371Z,71.42
2023-05-07T21:49:17.136Z,71.22
2023-05-07T21:51:43.777Z,71.59
2023-05-07T21:54:10.484Z,71.61
2023-05-07T21:56:37.242Z,71.31
2023-05-07T21:59:03.899Z,71.67
2023-05-07T22:01:30.529Z,72.00
2023-05-07T22:03:57.422Z,72.40
2023-05-07T22:06:26.129Z,72.24
2023-05-07T22:08:52.886Z,72.25
2023-05-07T22:11:19.619Z,71.88
2023-05-07T22:13:46.353Z,70.60
2023-05-07T22:16:14.457Z,71.05
2023-05-07T22:18:41.107Z,71.05
2023-05-07T22:21:07.949Z,71.14
2023-05-07T22:23:34.870Z,71.59
2023-05-07T22:26:01.483Z,71.35
2023-05-07T22:28:28.095Z,71.15
2023-05-07T22:30:54.749Z,71.61
2023-05-07T22:33:21.435Z,71.69
2023-05-07T22:35:48.140Z,71.83
2023-05-07T22:38:56.808Z,71.66
2023-05-07T22:41:23.987Z,71.81
2023-05-07T22:43:50.707Z,72.12
2023-05-07T22:46:17.923Z,71.86
2023-05-07T22:48:44.609Z,72.08
2023-05-07T22:51:14.809Z,72.63
2023-05-07T22:53:41.661Z,72.10
2023-05-07T22:56:08.753Z,72.13
2023-05-07T22:58:35.471Z,71.78
2023-05-07T23:01:02.553Z,72.39
2023-05-07T23:03:29.489Z,71.92
2023-05-07T23:05:56.158Z,71.80
2023-05-07T23:08:23.378Z,71.71
2023-05-07T23:10:50.037Z,71.72
2023-05-07T23:13:17.556Z,71.76
2023-05-07T23:15:44.470Z,71.46
2023-05-07T23:18:11.467Z,71.57
2023-05-07T23:20:39.769Z,71.43
2023-05-07T23:23:06.429Z,71.24
2023-05-07T23:25:33.150Z,71.66
2023-05-07T23:27:59.753Z,71.89
2023-05-07T23:30:26.560Z,71.90
2023-05-07T23:32:53.251Z,71.75
2023-05-07T23:35:20.107Z,71.50
2023-05-07T23:37:46.748Z,71.19
2023-05-07T23:40:13.506Z,71.76
2023-05-07T23:42:40.780Z,71.38
2023-05-07T23:45:07.690Z,71.14
2023-05-07T23:47:34.340Z,70.88
2023-05-07T23:50:01.022Z,71.17
2023-05-07T23:52:27.634Z,71.83
2023-05-07T23:54:54.300Z,71.49
2023-05-07T23:57:20.953Z,70.94
2023-05-07T23:59:47.559Z,71.52
